createdAt,value
2019-05-17T00:00:37.507Z,11.50
2019-05-17T00:03:06.932Z,11.50
2019-05-17T00:05:37.348Z,11.40
2019-05-17T00:08:07.603Z,11.50
2019-05-17T00:10:37.540Z,11.50
2019-05-17T00:13:07.637Z,11.50
2019-05-17T00:15:37.228Z,11.40
2019-05-17T00:18:06.747Z,11.40
2019-05-17T00:20:37.437Z,11.50
2019-05-17T00:23:07.324Z,11.50
2019-05-17T00:25:36.803Z,11.40
2019-05-17T00:28:07.389Z,11.40
2019-05-17T00:30:37.291Z,11.40
2019-05-17T00:33:07.825Z,11.40
2019-05-17T00:35:37.734Z,11.40
2019-05-17T00:38:07.045Z,11.30
2019-05-17T00:40:36.614Z,11.30
2019-05-17T00:43:06.730Z,11.40
2019-05-17T00:45:37.646Z,11.50
2019-05-17T00:48:06.831Z,11.50
2019-05-17T00:50:37.834Z,11.40
2019-05-17T00:53:07.174Z,11.40
2019-05-17T00:55:36.738Z,11.40
2019-05-17T00:58:06.809Z,11.40
2019-05-17T01:00:37.567Z,11.30
2019-05-17T01:03:07.290Z,11.30
2019-05-17T01:05:36.847Z,11.40
2019-05-17T01:08:07.398Z,11.40
2019-05-17T01:10:37.081Z,11.40
2019-05-17T01:13:06.759Z,11.40
2019-05-17T01:18:52.048Z,11.30
2019-05-17T01:21:21.349Z,11.30
2019-05-17T01:23:50.172Z,11.20
2019-05-17T01:26:19.279Z,11.30
2019-05-17T01:28:48.278Z,11.30
2019-05-17T01:31:17.395Z,11.30
2019-05-17T01:33:47.036Z,11.40
2019-05-17T01:36:17.387Z,11.40
2019-05-17T01:38:46.874Z,11.30
2019-05-17T01:41:17.341Z,11.40
2019-05-17T01:43:47.463Z,11.40
2019-05-17T01:46:17.204Z,11.40
2019-05-17T01:48:47.102Z,11.40
2019-05-17T01:51:16.909Z,11.40
2019-05-17T01:53:46.961Z,11.30
2019-05-17T01:56:16.891Z,11.30
2019-05-17T01:58:46.980Z,11.30
2019-05-17T02:01:16.995Z,11.20
2019-05-17T02:03:47.032Z,11.20
2019-05-17T02:06:16.636Z,11.20
2019-05-17T02:08:47.529Z,11.30
2019-05-17T02:11:18.410Z,11.30
2019-05-17T02:13:47.333Z,11.30
2019-05-17T02:16:16.634Z,11.30
2019-05-17T02:18:46.602Z,11.30
2019-05-17T02:21:16.853Z,11.20
2019-05-17T02:23:46.985Z,11.20
2019-05-17T02:26:17.318Z,11.30
2019-05-17T02:28:46.472Z,11.30
2019-05-17T02:31:15.426Z,11.30
2019-05-17T02:33:44.329Z,11.20
2019-05-17T02:36:14.298Z,11.10
2019-05-17T02:38:43.712Z,11.10
2019-05-17T02:41:14.076Z,11.10
2019-05-17T02:43:43.513Z,11.20
2019-05-17T02:46:13.601Z,11.10
2019-05-17T02:48:42.986Z,11.20
2019-05-17T02:51:13.110Z,11.10
2019-05-17T02:53:43.069Z,11.10
2019-05-17T02:56:13.525Z,11.00
2019-05-17T02:58:43.922Z,11.10
2019-05-17T03:01:13.289Z,11.10
2019-05-17T03:03:43.664Z,11.10
2019-05-17T03:06:13.627Z,11.10
2019-05-17T03:08:43.044Z,11.10
2019-05-17T03:11:13.438Z,11.10
2019-05-17T03:13:43.410Z,11.00
2019-05-17T03:16:14.769Z,11.10
2019-05-17T03:18:43.943Z,11.10
2019-05-17T03:21:13.619Z,11.00
2019-05-17T03:23:43.722Z,11.00
2019-05-17T03:26:13.318Z,11.10
2019-05-17T03:28:42.905Z,11.10
2019-05-17T03:31:16.654Z,11.00
2019-05-17T03:33:45.954Z,11.10
2019-05-17T03:36:16.850Z,11.00
2019-05-17T03:38:44.349Z,11.00
2019-05-17T03:41:23.382Z,11.00
2019-05-17T03:43:44.490Z,11.00
2019-05-17T03:46:14.091Z,11.00
2019-05-17T03:48:43.689Z,11.00
2019-05-17T03:51:13.193Z,10.90
2019-05-17T03:53:44.227Z,10.90
2019-05-17T03:56:13.427Z,10.90
2019-05-17T03:58:43.538Z,11.00
2019-05-17T04:01:13.956Z,11.00
2019-05-17T04:03:43.654Z,11.00
2019-05-17T04:06:13.356Z,10.90
2019-05-17T04:08:42.621Z,10.90
2019-05-17T04:11:22.326Z,10.90
2019-05-17T04:13:43.022Z,10.90
2019-05-17T04:16:13.929Z,10.90
2019-05-17T04:18:43.846Z,10.90
2019-05-17T04:21:12.731Z,10.90
2019-05-17T04:23:42.872Z,10.90
2019-05-17T04:26:13.560Z,11.00
2019-05-17T04:28:44.080Z,11.00
2019-05-17T04:31:13.665Z,11.00
2019-05-17T04:33:43.036Z,11.10
2019-05-17T04:36:13.157Z,11.00
2019-05-17T04:38:43.529Z,11.00
2019-05-17T04:41:13.415Z,11.00
2019-05-17T04:43:42.614Z,11.00
2019-05-17T04:46:12.907Z,11.10
2019-05-17T04:48:43.782Z,11.10
2019-05-17T04:51:13.413Z,11.10
2019-05-17T04:53:43.228Z,11.10
2019-05-17T04:56:14.065Z,11.10
2019-05-17T04:58:43.404Z,11.20
2019-05-17T05:01:13.226Z,11.20
2019-05-17T05:03:43.307Z,11.10
2019-05-17T05:06:13.351Z,11.20
2019-05-17T05:08:42.874Z,11.20
2019-05-17T05:11:12.669Z,11.10
2019-05-17T05:13:42.676Z,11.20
2019-05-17T05:16:13.452Z,11.10
2019-05-17T05:18:42.385Z,11.20
2019-05-17T05:21:12.257Z,11.30
2019-05-17T05:23:42.482Z,11.30
2019-05-17T05:26:12.051Z,11.20
2019-05-17T05:28:41.953Z,11.30
2019-05-17T05:31:13.096Z,11.20
2019-05-17T05:33:42.003Z,11.30
2019-05-17T05:36:11.373Z,11.30
2019-05-17T05:38:42.248Z,11.40
2019-05-17T05:41:12.223Z,11.40
2019-05-17T05:43:41.964Z,11.40
2019-05-17T05:46:11.691Z,11.50
2019-05-17T05:48:41.597Z,11.40
2019-05-17T05:51:13.449Z,11.30
2019-05-17T05:53:41.942Z,11.40
2019-05-17T05:56:13.343Z,11.40
2019-05-17T05:58:42.813Z,11.40
2019-05-17T06:01:12.745Z,11.30
2019-05-17T06:03:41.868Z,11.30
2019-05-17T06:06:12.388Z,11.30
2019-05-17T06:08:41.612Z,11.30
2019-05-17T06:11:12.298Z,11.40
2019-05-17T06:13:41.868Z,11.40
2019-05-17T06:16:11.968Z,11.40
2019-05-17T06:18:42.528Z,11.40
2019-05-17T06:21:12.175Z,11.40
2019-05-17T06:23:42.413Z,11.40
2019-05-17T06:26:12.474Z,11.40
2019-05-17T06:28:42.501Z,11.50
2019-05-17T06:31:11.661Z,11.50
2019-05-17T06:33:42.142Z,11.50
2019-05-17T06:36:13.502Z,11.60
2019-05-17T06:38:42.092Z,11.50
2019-05-17T06:41:12.596Z,11.40
2019-05-17T06:43:41.832Z,11.40
2019-05-17T06:46:12.393Z,11.40
2019-05-17T06:48:42.675Z,11.50
2019-05-17T06:51:12.013Z,11.50
2019-05-17T06:53:43.373Z,11.40
2019-05-17T06:56:13.092Z,11.50
2019-05-17T06:58:42.171Z,11.50
2019-05-17T07:01:11.725Z,11.40
2019-05-17T07:03:40.724Z,11.50
2019-05-17T07:06:11.556Z,11.60
2019-05-17T07:08:40.624Z,11.60
2019-05-17T07:11:09.831Z,11.60
2019-05-17T07:13:39.555Z,11.70
2019-05-17T07:16:10.247Z,11.60
2019-05-17T07:18:40.026Z,11.70
2019-05-17T07:21:10.028Z,11.70
2019-05-17T07:23:39.655Z,11.80
2019-05-17T07:26:11.813Z,11.80
2019-05-17T07:28:40.480Z,11.80
2019-05-17T07:31:10.110Z,11.80
2019-05-17T07:33:39.851Z,11.80
2019-05-17T07:36:10.156Z,11.90
2019-05-17T07:38:39.736Z,12.00
2019-05-17T07:41:10.069Z,11.90
2019-05-17T07:43:40.507Z,11.90
2019-05-17T07:46:09.789Z,11.90
2019-05-17T07:48:40.465Z,12.00
2019-05-17T07:51:10.158Z,12.00
2019-05-17T07:53:40.042Z,12.10
2019-05-17T07:56:10.267Z,12.00
2019-05-17T07:58:40.441Z,12.10
2019-05-17T08:01:10.096Z,12.10
2019-05-17T08:03:40.604Z,12.10
2019-05-17T08:06:10.646Z,12.20
2019-05-17T08:08:40.962Z,12.20
2019-05-17T08:11:10.575Z,12.30
2019-05-17T08:13:39.923Z,12.30
2019-05-17T08:16:10.304Z,12.40
2019-05-17T08:18:40.274Z,12.50
2019-05-17T08:21:10.370Z,12.50
2019-05-17T08:23:40.019Z,12.60
2019-05-17T08:26:10.652Z,12.70
2019-05-17T08:28:40.432Z,12.80
2019-05-17T08:31:09.979Z,12.80
2019-05-17T08:33:40.609Z,12.90
2019-05-17T08:36:09.849Z,12.90
2019-05-17T08:38:39.333Z,13.00
2019-05-17T08:41:10.453Z,13.10
2019-05-17T08:43:46.157Z,13.10
2019-05-17T08:46:10.593Z,13.30
2019-05-17T08:48:41.084Z,13.60
2019-05-17T08:51:10.831Z,13.90
2019-05-17T08:53:39.998Z,14.10
2019-05-17T08:56:10.020Z,14.30
2019-05-17T08:58:40.349Z,14.50
2019-05-17T09:01:11.238Z,14.70
2019-05-17T09:03:41.202Z,14.70
2019-05-17T09:06:12.558Z,14.70
2019-05-17T09:08:41.056Z,14.70
2019-05-17T09:11:10.124Z,14.70
2019-05-17T09:13:41.265Z,14.70
2019-05-17T09:16:10.730Z,14.70
2019-05-17T09:18:39.798Z,14.80
2019-05-17T09:21:09.736Z,14.80
2019-05-17T09:23:39.661Z,15.00
2019-05-17T09:26:10.069Z,15.10
2019-05-17T09:28:39.418Z,15.20
2019-05-17T09:31:10.450Z,15.30
2019-05-17T09:33:40.598Z,15.40
2019-05-17T09:36:10.248Z,15.50
2019-05-17T09:38:40.435Z,15.60
2019-05-17T09:41:09.725Z,15.70
2019-05-17T09:43:40.221Z,15.80
2019-05-17T09:46:10.642Z,15.80
2019-05-17T09:48:39.833Z,15.70
2019-05-17T09:51:10.445Z,15.80
2019-05-17T09:53:40.129Z,15.70
2019-05-17T09:56:09.928Z,15.60
2019-05-17T09:58:39.737Z,15.60
2019-05-17T10:01:09.442Z,15.50
2019-05-17T10:03:39.787Z,15.30
2019-05-17T10:06:09.668Z,15.40
2019-05-17T10:08:39.442Z,15.50
2019-05-17T10:11:11.950Z,15.50
2019-05-17T10:13:39.483Z,15.70
2019-05-17T10:16:10.149Z,15.90
2019-05-17T10:18:40.110Z,16.20
2019-05-17T10:21:10.509Z,16.20
2019-05-17T10:23:40.679Z,16.10
2019-05-17T10:26:10.301Z,16.00
2019-05-17T10:28:40.037Z,16.00
2019-05-17T10:31:11.233Z,15.80
2019-05-17T10:33:40.153Z,15.60
2019-05-17T10:36:09.232Z,15.50
2019-05-17T10:38:39.561Z,15.60
2019-05-17T10:41:10.102Z,15.60
2019-05-17T10:43:39.309Z,15.60
2019-05-17T10:46:10.517Z,15.50
2019-05-17T10:48:41.110Z,15.40
2019-05-17T10:51:13.371Z,15.40
2019-05-17T10:53:41.453Z,15.60
2019-05-17T10:56:10.302Z,15.80
2019-05-17T10:58:39.906Z,15.70
2019-05-17T11:01:10.236Z,15.60
2019-05-17T11:03:39.855Z,15.70
2019-05-17T11:06:10.997Z,15.80
2019-05-17T11:08:40.007Z,15.90
2019-05-17T11:11:10.189Z,16.10
2019-05-17T11:13:39.324Z,16.00
2019-05-17T11:16:08.957Z,15.90
2019-05-17T11:18:38.056Z,16.00
2019-05-17T11:21:06.996Z,16.10
2019-05-17T11:23:36.037Z,16.20
2019-05-17T11:26:05.039Z,16.20
2019-05-17T11:28:34.148Z,16.30
2019-05-17T11:31:03.249Z,16.80
2019-05-17T11:33:32.341Z,16.70
2019-05-17T11:36:01.499Z,16.70
2019-05-17T11:38:30.473Z,16.60
2019-05-17T11:41:19.833Z,16.50
2019-05-17T11:43:34.199Z,16.60
2019-05-17T11:46:02.957Z,16.70
2019-05-17T11:48:32.030Z,16.60
2019-05-17T11:51:00.856Z,16.70
2019-05-17T11:53:29.908Z,16.80
2019-05-17T11:55:59.213Z,16.70
2019-05-17T11:58:28.468Z,16.50
2019-05-17T12:00:57.571Z,16.70
2019-05-17T12:03:26.730Z,17.10
2019-05-17T12:05:55.561Z,17.10
2019-05-17T12:08:24.326Z,17.40
2019-05-17T12:10:53.451Z,17.40
2019-05-17T12:13:22.385Z,17.40
2019-05-17T12:15:51.230Z,17.60
2019-05-17T12:18:20.220Z,17.70
2019-05-17T12:20:49.012Z,17.70
2019-05-17T12:23:18.104Z,18.00
2019-05-17T12:25:47.989Z,18.10
2019-05-17T12:28:16.981Z,18.10
2019-05-17T12:30:45.850Z,18.00
2019-05-17T12:33:15.110Z,18.10
2019-05-17T12:35:44.113Z,18.00
2019-05-17T12:38:12.968Z,18.20
2019-05-17T12:40:42.665Z,18.50
2019-05-17T12:43:11.435Z,18.60
2019-05-17T12:45:40.222Z,18.50
2019-05-17T12:48:09.226Z,18.30
2019-05-17T12:50:38.240Z,18.20
2019-05-17T12:53:07.073Z,18.10
2019-05-17T12:55:36.829Z,17.90
2019-05-17T12:58:05.835Z,17.90
2019-05-17T13:00:34.916Z,18.00
2019-05-17T13:03:03.753Z,18.30
2019-05-17T13:05:32.993Z,18.40
2019-05-17T13:08:10.138Z,18.30
2019-05-17T13:10:39.211Z,18.20
2019-05-17T13:13:09.680Z,18.20
2019-05-17T13:15:38.725Z,18.10
2019-05-17T13:18:07.606Z,18.00
2019-05-17T13:20:36.622Z,18.10
2019-05-17T13:23:05.578Z,18.10
2019-05-17T13:25:34.444Z,18.10
2019-05-17T13:28:03.282Z,18.10
2019-05-17T13:30:32.180Z,18.00
2019-05-17T13:33:01.261Z,17.90
2019-05-17T13:35:30.043Z,17.80
2019-05-17T13:37:59.061Z,17.70
2019-05-17T13:40:28.093Z,17.70
2019-05-17T13:42:57.161Z,17.70
2019-05-17T13:45:25.918Z,17.70
2019-05-17T13:47:54.962Z,17.70
2019-05-17T13:50:24.094Z,17.70
2019-05-17T13:52:52.877Z,17.60
2019-05-17T13:55:21.776Z,17.60
2019-05-17T13:57:50.617Z,17.50
2019-05-17T14:00:19.549Z,17.60
2019-05-17T14:02:48.448Z,17.60
2019-05-17T14:05:18.027Z,17.80
2019-05-17T14:07:47.052Z,17.90
2019-05-17T14:10:26.815Z,17.90
2019-05-17T14:12:46.846Z,17.90
2019-05-17T14:15:16.674Z,17.90
2019-05-17T14:17:45.498Z,18.00
2019-05-17T14:20:15.010Z,18.00
2019-05-17T14:22:43.774Z,17.90
2019-05-17T14:25:12.723Z,17.80
2019-05-17T14:27:41.797Z,17.90
2019-05-17T14:30:12.192Z,17.80
2019-05-17T14:32:41.105Z,17.80
2019-05-17T14:35:10.536Z,18.00
2019-05-17T14:37:39.833Z,18.10
2019-05-17T14:40:09.922Z,18.00
2019-05-17T14:42:39.418Z,18.10
2019-05-17T14:45:08.924Z,18.00
2019-05-17T14:47:37.912Z,18.00
2019-05-17T14:50:08.314Z,18.00
2019-05-17T14:52:37.537Z,18.00
2019-05-17T14:55:07.443Z,17.90
2019-05-17T14:57:36.224Z,17.80
2019-05-17T15:00:05.608Z,17.80
2019-05-17T15:02:34.867Z,17.80
2019-05-17T15:05:03.777Z,17.80
2019-05-17T15:07:32.667Z,17.80
2019-05-17T15:10:02.596Z,17.80
2019-05-17T15:12:31.474Z,17.80
2019-05-17T15:15:00.238Z,17.80
2019-05-17T15:17:29.003Z,17.80
2019-05-17T15:19:57.752Z,17.80
2019-05-17T15:22:26.594Z,17.80
2019-05-17T15:24:55.364Z,17.90
2019-05-17T15:27:24.414Z,17.90
2019-05-17T15:29:53.512Z,17.90
2019-05-17T15:32:22.518Z,17.90
2019-05-17T15:34:51.364Z,17.90
2019-05-17T15:37:20.377Z,17.90
2019-05-17T15:39:49.779Z,17.80
2019-05-17T15:42:18.564Z,17.90
2019-05-17T15:44:47.306Z,17.80
2019-05-17T15:47:16.304Z,17.90
2019-05-17T15:49:45.321Z,18.00
2019-05-17T15:52:14.077Z,18.00
2019-05-17T15:54:43.068Z,18.00
2019-05-17T15:57:11.816Z,18.10
2019-05-17T15:59:40.913Z,18.00
2019-05-17T16:02:09.752Z,18.00
2019-05-17T16:04:41.114Z,18.00
2019-05-17T16:07:09.935Z,18.00
2019-05-17T16:09:38.996Z,18.10
2019-05-17T16:12:07.778Z,18.10
2019-05-17T16:14:36.860Z,18.10
2019-05-17T16:17:05.600Z,18.00
2019-05-17T16:19:34.607Z,18.00
2019-05-17T16:22:03.688Z,18.00
2019-05-17T16:24:32.756Z,18.00
2019-05-17T16:27:01.546Z,18.00
2019-05-17T16:29:30.793Z,18.00
2019-05-17T16:31:59.567Z,18.00
2019-05-17T16:34:28.409Z,18.00
2019-05-17T16:36:57.459Z,18.00
2019-05-17T16:39:26.248Z,18.10
2019-05-17T16:41:55.209Z,18.10
2019-05-17T16:44:23.955Z,18.10
2019-05-17T16:46:53.507Z,18.10
2019-05-17T16:49:22.304Z,18.10
2019-05-17T16:51:51.069Z,18.10
2019-05-17T16:54:19.935Z,18.20
2019-05-17T16:56:49.266Z,18.10
2019-05-17T16:59:18.288Z,18.20
2019-05-17T17:01:47.291Z,18.20
2019-05-17T17:04:16.121Z,18.20
2019-05-17T17:06:45.178Z,18.20
2019-05-17T17:09:14.000Z,18.20
2019-05-17T17:11:45.675Z,18.20
2019-05-17T17:14:13.873Z,18.20
2019-05-17T17:16:42.852Z,18.30
2019-05-17T17:19:12.014Z,18.30
2019-05-17T17:21:40.778Z,18.30
2019-05-17T17:24:09.876Z,18.30
2019-05-17T17:26:38.924Z,18.30
2019-05-17T17:29:07.992Z,18.20
2019-05-17T17:31:36.763Z,18.20
2019-05-17T17:34:05.581Z,18.20
2019-05-17T17:36:34.480Z,18.20
2019-05-17T17:39:06.162Z,18.20
2019-05-17T17:41:35.257Z,18.20
2019-05-17T17:44:04.599Z,18.20
2019-05-17T17:46:33.337Z,18.20
2019-05-17T17:49:02.414Z,18.20
2019-05-17T17:51:31.216Z,18.20
2019-05-17T17:54:00.017Z,18.20
2019-05-17T17:56:28.788Z,18.10
2019-05-17T17:58:57.854Z,18.20
2019-05-17T18:01:26.939Z,18.10
2019-05-17T18:03:55.690Z,18.10
2019-05-17T18:06:24.525Z,18.10
2019-05-17T18:08:53.272Z,18.10
2019-05-17T18:11:22.123Z,18.10
2019-05-17T18:13:50.877Z,18.10
2019-05-17T18:16:19.715Z,18.10
2019-05-17T18:18:48.521Z,18.10
2019-05-17T18:21:17.359Z,18.10
2019-05-17T18:23:46.546Z,18.10
2019-05-17T18:26:15.312Z,18.00
2019-05-17T18:28:44.153Z,18.00
2019-05-17T18:31:12.917Z,18.00
2019-05-17T18:33:41.830Z,18.00
2019-05-17T18:36:10.821Z,18.00
2019-05-17T18:38:40.194Z,17.90
2019-05-17T18:41:09.779Z,17.90
2019-05-17T18:43:38.676Z,17.90
2019-05-17T18:46:07.505Z,17.90
2019-05-17T18:48:36.345Z,17.80
2019-05-17T18:51:05.248Z,17.80
2019-05-17T18:53:34.109Z,17.80
2019-05-17T18:56:02.946Z,17.80
2019-05-17T18:58:31.836Z,17.70
2019-05-17T19:01:00.587Z,17.70
2019-05-17T19:03:29.420Z,17.70
2019-05-17T19:05:58.509Z,17.60
2019-05-17T19:08:27.574Z,17.60
2019-05-17T19:10:56.411Z,17.60
2019-05-17T19:13:25.241Z,17.60
2019-05-17T19:15:54.226Z,17.60
2019-05-17T19:18:23.209Z,17.50
2019-05-17T19:20:51.961Z,17.50
2019-05-17T19:23:21.039Z,17.50
2019-05-17T19:25:49.856Z,17.40
2019-05-17T19:28:18.664Z,17.40
2019-05-17T19:30:47.573Z,17.40
2019-05-17T19:33:16.387Z,17.40
2019-05-17T19:35:45.213Z,17.40
2019-05-17T19:38:14.286Z,17.40
2019-05-17T19:40:43.338Z,17.40
2019-05-17T19:43:12.084Z,17.30
2019-05-17T19:45:40.922Z,17.30
2019-05-17T19:48:09.755Z,17.30
2019-05-17T19:50:38.503Z,17.30
2019-05-17T19:53:07.388Z,17.30
2019-05-17T19:55:36.473Z,17.30
2019-05-17T19:58:05.541Z,17.20
2019-05-17T20:00:34.378Z,17.20
2019-05-17T20:03:03.205Z,17.30
2019-05-17T20:05:32.145Z,17.20
2019-05-17T20:08:00.874Z,17.10
2019-05-17T20:10:30.248Z,17.20
2019-05-17T20:12:59.014Z,17.20
2019-05-17T20:15:34.371Z,17.10
2019-05-17T20:17:58.355Z,17.10
2019-05-17T20:20:27.273Z,17.10
2019-05-17T20:22:56.671Z,17.00
2019-05-17T20:25:25.486Z,17.10
2019-05-17T20:27:54.740Z,17.10
2019-05-17T20:30:23.495Z,17.00
2019-05-17T20:32:52.274Z,17.00
2019-05-17T20:35:21.341Z,17.00
2019-05-17T20:37:50.342Z,16.90
2019-05-17T20:40:19.521Z,17.00
2019-05-17T20:42:48.353Z,17.00
2019-05-17T20:45:30.550Z,17.00
2019-05-17T20:47:48.213Z,17.00
2019-05-17T20:50:18.314Z,17.00
2019-05-17T20:52:47.310Z,17.00
2019-05-17T20:55:16.310Z,17.00
2019-05-17T20:57:45.065Z,17.00
2019-05-17T21:00:16.042Z,17.00
2019-05-17T21:02:45.374Z,16.90
2019-05-17T21:05:17.053Z,16.90
2019-05-17T21:07:45.900Z,16.80
2019-05-17T21:10:14.802Z,16.80
2019-05-17T21:12:43.802Z,16.90
2019-05-17T21:15:12.725Z,16.90
2019-05-17T21:17:41.486Z,16.80
2019-05-17T21:20:10.592Z,16.80
2019-05-17T21:22:39.354Z,16.80
2019-05-17T21:25:08.360Z,16.70
2019-05-17T21:27:37.267Z,16.70
2019-05-17T21:30:06.838Z,16.60
2019-05-17T21:32:35.670Z,16.70
2019-05-17T21:35:04.741Z,16.70
2019-05-17T21:37:33.560Z,16.60
2019-05-17T21:40:02.554Z,16.60
2019-05-17T21:42:31.304Z,16.50
2019-05-17T21:45:00.309Z,16.40
2019-05-17T21:47:29.065Z,16.30
2019-05-17T21:49:57.816Z,16.30
2019-05-17T21:52:26.558Z,16.30
2019-05-17T21:54:55.308Z,16.20
2019-05-17T21:57:24.562Z,16.20
2019-05-17T21:59:53.327Z,16.20
2019-05-17T22:02:22.300Z,16.20
2019-05-17T22:04:51.301Z,16.30
2019-05-17T22:07:20.055Z,16.30
2019-05-17T22:09:49.496Z,16.30
2019-05-17T22:12:18.252Z,16.20
2019-05-17T22:14:47.021Z,16.20
2019-05-17T22:17:15.993Z,16.20
2019-05-17T22:19:44.735Z,16.20
2019-05-17T22:22:13.481Z,16.10
2019-05-17T22:24:42.480Z,16.10
2019-05-17T22:27:11.308Z,16.00
2019-05-17T22:29:40.540Z,15.90
2019-05-17T22:32:09.393Z,15.90
2019-05-17T22:34:38.374Z,15.80
2019-05-17T22:37:07.276Z,15.80
2019-05-17T22:39:36.084Z,15.80
2019-05-17T22:42:05.210Z,15.80
2019-05-17T22:44:45.454Z,15.80
2019-05-17T22:47:15.753Z,15.80
2019-05-17T22:50:03.137Z,15.70
2019-05-17T22:52:32.321Z,15.60
2019-05-17T22:55:01.336Z,15.60
2019-05-17T22:57:32.481Z,15.50
2019-05-17T23:00:01.277Z,15.50
2019-05-17T23:02:30.312Z,15.50
2019-05-17T23:04:59.322Z,15.40
2019-05-17T23:07:28.102Z,15.40
2019-05-17T23:09:56.849Z,15.50
2019-05-17T23:12:25.620Z,15.50
2019-05-17T23:14:54.384Z,15.40
2019-05-17T23:17:23.146Z,15.40
2019-05-17T23:19:52.297Z,15.40
2019-05-17T23:22:21.290Z,15.40
2019-05-17T23:24:50.039Z,15.30
2019-05-17T23:27:18.814Z,15.40
2019-05-17T23:29:47.556Z,15.30
2019-05-17T23:32:16.340Z,15.30
2019-05-17T23:34:45.161Z,15.30
2019-05-17T23:37:14.147Z,15.30
2019-05-17T23:39:43.402Z,15.30
2019-05-17T23:42:12.663Z,15.30
2019-05-17T23:44:41.666Z,15.40
2019-05-17T23:47:10.401Z,15.40
2019-05-17T23:49:39.217Z,15.30
2019-05-17T23:52:08.010Z,15.30
2019-05-17T23:54:36.761Z,15.20
2019-05-17T23:57:05.907Z,15.30
2019-05-17T23:59:35.140Z,15.10
